createdAt,value
2018-06-19T00:00:11.616Z,4.58
2018-06-19T00:00:48.893Z,5.08
2018-06-19T00:01:23.326Z,3.87
2018-06-19T00:01:56.863Z,4.78
2018-06-19T00:02:32.614Z,4.17
2018-06-19T00:03:05.959Z,4.47
2018-06-19T00:03:39.934Z,7.15
2018-06-19T00:04:13.355Z,4.97
2018-06-19T00:04:46.799Z,5.55
2018-06-19T00:05:19.979Z,3.80
2018-06-19T00:05:53.096Z,7.72
2018-06-19T00:06:26.298Z,6.22
2018-06-19T00:06:59.431Z,4.30
2018-06-19T00:07:32.608Z,4.20
2018-06-19T00:08:05.891Z,5.55
2018-06-19T00:08:40.398Z,4.05
2018-06-19T00:09:13.694Z,3.80
2018-06-19T00:09:47.222Z,4.83
2018-06-19T00:10:20.340Z,5.55
2018-06-19T00:10:53.581Z,5.10
2018-06-19T00:11:27.035Z,3.90
2018-06-19T00:12:00.373Z,4.40
2018-06-19T00:12:33.855Z,3.92
2018-06-19T00:13:07.869Z,5.17
2018-06-19T00:13:41.532Z,5.92
2018-06-19T00:14:14.731Z,6.03
2018-06-19T00:14:47.849Z,4.70
2018-06-19T00:15:20.988Z,4.10
2018-06-19T00:15:54.167Z,4.40
2018-06-19T00:16:27.494Z,5.03
2018-06-19T00:17:00.924Z,4.50
2018-06-19T00:17:34.812Z,8.63
2018-06-19T00:18:10.249Z,6.28
2018-06-19T00:18:51.341Z,4.90
2018-06-19T00:19:24.982Z,7.90
2018-06-19T00:19:58.487Z,4.60
2018-06-19T00:20:31.978Z,3.72
2018-06-19T00:21:08.599Z,5.08
2018-06-19T00:21:46.016Z,4.60
2018-06-19T00:22:19.141Z,5.40
2018-06-19T00:22:52.843Z,5.70
2018-06-19T00:23:26.573Z,6.83
2018-06-19T00:23:59.920Z,4.53
2018-06-19T00:24:36.790Z,5.28
2018-06-19T00:25:09.969Z,3.83
2018-06-19T00:25:44.171Z,4.92
2018-06-19T00:26:17.951Z,4.65
2018-06-19T00:26:51.229Z,4.58
2018-06-19T00:27:24.553Z,4.00
2018-06-19T00:27:57.730Z,5.08
2018-06-19T00:28:31.196Z,4.05
2018-06-19T00:29:04.471Z,4.65
2018-06-19T00:29:37.676Z,4.85
2018-06-19T00:30:11.881Z,4.67
2018-06-19T00:30:45.295Z,5.53
2018-06-19T00:31:18.644Z,4.83
2018-06-19T00:31:52.122Z,5.62
2018-06-19T00:32:25.473Z,4.60
2018-06-19T00:32:59.009Z,4.83
2018-06-19T00:33:32.632Z,5.33
2018-06-19T00:34:06.363Z,5.05
2018-06-19T00:34:39.921Z,4.67
2018-06-19T00:35:13.409Z,4.35
2018-06-19T00:35:46.544Z,4.40
2018-06-19T00:36:19.721Z,6.15
2018-06-19T00:36:52.896Z,4.90
2018-06-19T00:37:26.067Z,4.10
2018-06-19T00:38:00.583Z,4.17
2018-06-19T00:38:33.739Z,4.25
2018-06-19T00:39:07.392Z,7.15
2018-06-19T00:39:41.976Z,4.92
2018-06-19T00:40:15.385Z,5.95
2018-06-19T00:40:48.552Z,4.87
2018-06-19T00:41:23.029Z,4.10
2018-06-19T00:41:56.186Z,4.15
2018-06-19T00:42:29.324Z,4.78
2018-06-19T00:43:02.442Z,5.12
2018-06-19T00:43:35.621Z,5.62
2018-06-19T00:44:09.265Z,5.10
2018-06-19T00:44:42.612Z,4.80
2018-06-19T00:45:15.720Z,4.53
2018-06-19T00:45:48.822Z,4.40
2018-06-19T00:46:23.367Z,4.83
2018-06-19T00:46:56.526Z,4.30
2018-06-19T00:47:29.729Z,4.70
2018-06-19T00:48:02.847Z,4.62
2018-06-19T00:48:36.204Z,7.92
2018-06-19T00:49:09.444Z,4.37
2018-06-19T00:49:42.554Z,5.10
2018-06-19T00:50:15.671Z,5.75
2018-06-19T00:50:48.780Z,7.70
2018-06-19T00:51:21.846Z,5.60
2018-06-19T00:51:54.984Z,6.30
2018-06-19T00:52:28.443Z,5.42
2018-06-19T00:53:01.567Z,4.65
2018-06-19T00:53:34.662Z,4.25
2018-06-19T00:54:07.763Z,5.12
2018-06-19T00:54:41.020Z,5.05
2018-06-19T00:55:14.133Z,4.22
2018-06-19T00:55:47.412Z,6.20
2018-06-19T00:56:25.980Z,4.45
2018-06-19T00:57:00.019Z,5.45
2018-06-19T00:57:33.117Z,4.60
2018-06-19T00:58:06.255Z,4.50
2018-06-19T00:58:39.353Z,4.22
2018-06-19T00:59:12.480Z,4.33
2018-06-19T00:59:45.660Z,4.55
2018-06-19T01:00:18.762Z,4.20
2018-06-19T01:00:51.932Z,4.00
2018-06-19T01:01:25.009Z,4.60
2018-06-19T01:01:58.803Z,4.10
2018-06-19T01:02:31.893Z,4.50
2018-06-19T01:03:05.035Z,4.80
2018-06-19T01:03:38.334Z,4.70
2018-06-19T01:04:11.412Z,5.05
2018-06-19T01:04:44.501Z,4.12
2018-06-19T01:05:17.628Z,4.22
2018-06-19T01:05:50.718Z,5.35
2018-06-19T01:06:23.830Z,6.05
2018-06-19T01:06:57.101Z,4.90
2018-06-19T01:07:30.167Z,5.30
2018-06-19T01:08:03.323Z,4.78
2018-06-19T01:08:36.508Z,9.15
2018-06-19T01:09:10.179Z,4.00
2018-06-19T01:09:43.292Z,7.28
2018-06-19T01:10:16.546Z,4.30
2018-06-19T01:10:49.648Z,4.70
2018-06-19T01:11:22.866Z,5.12
2018-06-19T01:11:56.070Z,6.12
2018-06-19T01:12:29.193Z,5.40
2018-06-19T01:13:02.300Z,4.50
2018-06-19T01:13:35.578Z,5.37
2018-06-19T01:14:08.693Z,4.60
2018-06-19T01:14:41.792Z,5.95
2018-06-19T01:15:14.915Z,5.15
2018-06-19T01:15:48.022Z,5.05
2018-06-19T01:16:21.129Z,4.70
2018-06-19T01:16:54.239Z,4.37
2018-06-19T01:17:27.495Z,4.95
2018-06-19T01:18:00.697Z,4.15
2018-06-19T01:18:33.912Z,4.70
2018-06-19T01:19:07.050Z,5.42
2018-06-19T01:19:40.224Z,5.05
2018-06-19T01:20:13.340Z,5.45
2018-06-19T01:20:46.439Z,4.50
2018-06-19T01:21:19.580Z,4.17
2018-06-19T01:21:52.919Z,4.90
2018-06-19T01:22:25.958Z,5.60
2018-06-19T01:22:59.059Z,5.35
2018-06-19T01:23:32.151Z,4.83
2018-06-19T01:24:05.240Z,4.67
2018-06-19T01:24:38.519Z,4.60
2018-06-19T01:25:11.593Z,9.10
2018-06-19T01:25:44.988Z,5.80
2018-06-19T01:26:18.090Z,4.83
2018-06-19T01:26:51.231Z,5.22
2018-06-19T01:27:24.384Z,5.03
2018-06-19T01:27:58.147Z,4.25
2018-06-19T01:28:31.499Z,4.80
2018-06-19T01:29:04.598Z,5.12
2018-06-19T01:29:37.724Z,8.45
2018-06-19T01:30:10.916Z,8.53
2018-06-19T01:30:44.039Z,4.80
2018-06-19T01:31:17.124Z,4.85
2018-06-19T01:31:50.456Z,7.03
2018-06-19T01:32:23.563Z,4.90
2018-06-19T01:32:56.672Z,6.17
2018-06-19T01:33:29.777Z,4.85
2018-06-19T01:34:02.874Z,5.00
2018-06-19T01:34:36.132Z,6.10
2018-06-19T01:35:09.302Z,4.80
2018-06-19T01:35:42.631Z,5.90
2018-06-19T01:36:15.891Z,5.37
2018-06-19T01:36:49.044Z,5.08
2018-06-19T01:37:22.159Z,4.33
2018-06-19T01:37:55.282Z,5.17
2018-06-19T01:38:28.417Z,4.95
2018-06-19T01:39:01.580Z,5.70
2018-06-19T01:39:34.705Z,5.42
2018-06-19T01:40:07.856Z,5.10
2018-06-19T01:40:41.115Z,4.60
2018-06-19T01:41:14.235Z,4.60
2018-06-19T01:41:47.366Z,5.45
2018-06-19T01:42:20.555Z,4.85
2018-06-19T01:42:53.669Z,5.75
2018-06-19T01:43:26.922Z,5.03
2018-06-19T01:44:00.056Z,5.05
2018-06-19T01:44:33.169Z,4.97
2018-06-19T01:45:06.755Z,6.42
2018-06-19T01:45:39.940Z,7.22
2018-06-19T01:46:13.213Z,5.10
2018-06-19T01:46:46.308Z,4.50
2018-06-19T01:47:19.463Z,5.15
2018-06-19T01:47:52.551Z,5.37
2018-06-19T01:48:25.648Z,5.15
2018-06-19T01:48:58.781Z,5.10
2018-06-19T01:49:31.882Z,5.60
2018-06-19T01:50:05.016Z,6.12
2018-06-19T01:50:38.646Z,7.05
2018-06-19T01:51:11.819Z,4.80
2018-06-19T01:51:44.956Z,6.33
2018-06-19T01:52:18.101Z,5.35
2018-06-19T01:52:51.215Z,5.00
2018-06-19T01:53:24.320Z,5.45
2018-06-19T01:53:57.601Z,4.72
2018-06-19T01:54:30.719Z,5.83
2018-06-19T01:55:03.960Z,4.72
2018-06-19T01:55:37.047Z,5.40
2018-06-19T01:56:10.153Z,6.15
2018-06-19T01:56:43.492Z,4.85
2018-06-19T01:57:16.671Z,4.50
2018-06-19T01:57:49.794Z,5.60
2018-06-19T01:58:22.896Z,4.83
2018-06-19T01:58:56.205Z,6.30
2018-06-19T01:59:29.382Z,5.95
2018-06-19T02:00:02.671Z,5.45
2018-06-19T02:00:36.039Z,5.00
2018-06-19T02:01:09.306Z,7.42
2018-06-19T02:01:42.429Z,9.28
2018-06-19T02:02:15.536Z,5.92
2018-06-19T02:02:48.639Z,5.05
2018-06-19T02:03:21.928Z,5.00
2018-06-19T02:03:55.037Z,5.05
2018-06-19T02:04:28.148Z,5.00
2018-06-19T02:05:01.259Z,4.83
2018-06-19T02:05:34.371Z,5.72
2018-06-19T02:06:07.550Z,5.80
2018-06-19T02:06:40.689Z,5.28
2018-06-19T02:07:13.988Z,5.25
2018-06-19T02:07:47.351Z,4.50
2018-06-19T02:08:20.475Z,4.62
2018-06-19T02:08:53.690Z,5.25
2018-06-19T02:09:26.789Z,5.28
2018-06-19T02:10:00.065Z,4.97
2018-06-19T02:10:33.245Z,4.50
2018-06-19T02:11:06.382Z,5.60
2018-06-19T02:11:39.506Z,6.92
2018-06-19T02:12:12.635Z,5.40
2018-06-19T02:12:45.721Z,6.30
2018-06-19T02:13:18.887Z,5.50
2018-06-19T02:13:51.982Z,4.62
2018-06-19T02:14:25.313Z,5.00
2018-06-19T02:14:58.394Z,5.42
2018-06-19T02:15:31.498Z,5.60
2018-06-19T02:16:04.647Z,7.53
2018-06-19T02:16:37.753Z,4.85
2018-06-19T02:17:10.877Z,4.70
2018-06-19T02:17:43.956Z,5.60
2018-06-19T02:18:17.135Z,5.50
2018-06-19T02:18:50.328Z,5.05
2018-06-19T02:19:23.485Z,4.70
2018-06-19T02:19:56.667Z,4.83
2018-06-19T02:20:29.868Z,5.20
2018-06-19T02:21:03.327Z,5.03
2018-06-19T02:21:36.506Z,5.12
2018-06-19T02:22:09.631Z,5.58
2018-06-19T02:22:42.729Z,5.67
2018-06-19T02:23:16.043Z,5.08
2018-06-19T02:23:49.217Z,6.50
2018-06-19T02:24:22.328Z,4.90
2018-06-19T02:24:55.701Z,5.50
2018-06-19T02:25:28.808Z,4.92
2018-06-19T02:26:01.960Z,4.90
2018-06-19T02:26:35.115Z,5.22
2018-06-19T02:27:08.299Z,4.67
2018-06-19T02:27:41.381Z,6.25
2018-06-19T02:28:14.458Z,4.90
2018-06-19T02:28:47.560Z,5.50
2018-06-19T02:29:20.706Z,5.53
2018-06-19T02:29:53.882Z,4.58
2018-06-19T02:30:27.047Z,5.03
2018-06-19T02:31:00.150Z,5.20
2018-06-19T02:31:33.243Z,6.92
2018-06-19T02:32:06.470Z,5.33
2018-06-19T02:32:39.756Z,5.37
2018-06-19T02:33:12.830Z,4.65
2018-06-19T02:33:45.949Z,6.00
2018-06-19T02:34:19.122Z,5.08
2018-06-19T02:34:52.253Z,5.42
2018-06-19T02:35:25.384Z,5.40
2018-06-19T02:35:58.492Z,5.58
2018-06-19T02:36:31.713Z,5.20
2018-06-19T02:37:04.844Z,6.45
2018-06-19T02:37:37.933Z,4.60
2018-06-19T02:38:11.018Z,7.12
2018-06-19T02:38:44.095Z,5.28
2018-06-19T02:39:17.190Z,6.05
2018-06-19T02:39:50.264Z,4.95
2018-06-19T02:40:23.468Z,5.42
2018-06-19T02:40:56.521Z,4.62
2018-06-19T02:41:29.699Z,6.58
2018-06-19T02:42:02.774Z,6.75
2018-06-19T02:42:35.904Z,5.67
2018-06-19T02:43:09.256Z,5.05
2018-06-19T02:43:42.434Z,5.20
2018-06-19T02:44:15.719Z,4.75
2018-06-19T02:44:48.799Z,5.10
2018-06-19T02:45:21.980Z,5.80
2018-06-19T02:45:55.088Z,4.75
2018-06-19T02:46:28.302Z,7.83
2018-06-19T02:47:01.407Z,5.12
2018-06-19T02:47:34.789Z,5.17
2018-06-19T02:48:08.012Z,5.30
2018-06-19T02:48:41.124Z,5.10
2018-06-19T02:49:14.265Z,6.20
2018-06-19T02:49:47.407Z,6.90
2018-06-19T02:50:20.512Z,5.28
2018-06-19T02:50:53.865Z,5.50
2018-06-19T02:51:26.971Z,7.08
2018-06-19T02:52:00.063Z,5.70
2018-06-19T02:52:33.289Z,5.05
2018-06-19T02:53:06.799Z,6.78
2018-06-19T02:53:39.918Z,5.30
2018-06-19T02:54:13.119Z,6.70
2018-06-19T02:54:46.231Z,5.37
2018-06-19T02:55:19.483Z,5.42
2018-06-19T02:55:52.593Z,5.50
2018-06-19T02:56:25.739Z,6.12
2018-06-19T02:56:58.838Z,5.83
2018-06-19T02:57:32.204Z,7.30
2018-06-19T02:58:05.302Z,5.40
2018-06-19T02:58:38.566Z,5.40
2018-06-19T02:59:11.692Z,4.95
2018-06-19T02:59:45.023Z,5.37
2018-06-19T03:00:18.126Z,4.85
2018-06-19T03:00:51.264Z,5.20
2018-06-19T03:01:24.440Z,5.45
2018-06-19T03:01:57.545Z,8.55
2018-06-19T03:02:30.791Z,5.10
2018-06-19T03:03:03.899Z,5.87
2018-06-19T03:03:37.154Z,5.83
2018-06-19T03:04:10.272Z,5.50
2018-06-19T03:04:43.409Z,8.38
2018-06-19T03:05:16.688Z,6.85
2018-06-19T03:05:49.759Z,6.60
2018-06-19T03:06:22.881Z,5.55
2018-06-19T03:06:56.138Z,6.03
2018-06-19T03:07:29.227Z,5.05
2018-06-19T03:08:02.576Z,7.58
2018-06-19T03:08:35.863Z,5.00
2018-06-19T03:09:10.168Z,4.67
2018-06-19T03:09:43.258Z,5.12
2018-06-19T03:10:16.524Z,5.15
2018-06-19T03:10:49.695Z,5.70
2018-06-19T03:11:22.895Z,5.75
2018-06-19T03:11:55.964Z,4.62
2018-06-19T03:12:29.239Z,6.35
2018-06-19T03:13:02.434Z,5.67
2018-06-19T03:13:35.624Z,4.62
2018-06-19T03:14:08.805Z,5.58
2018-06-19T03:14:41.960Z,5.15
2018-06-19T03:15:15.145Z,6.12
2018-06-19T03:15:48.240Z,4.12
2018-06-19T03:16:21.335Z,6.30
2018-06-19T03:16:54.444Z,7.42
2018-06-19T03:17:27.547Z,5.03
2018-06-19T03:18:00.747Z,5.05
2018-06-19T03:18:33.905Z,6.20
2018-06-19T03:19:07.019Z,5.72
2018-06-19T03:19:40.272Z,5.05
2018-06-19T03:20:13.435Z,6.08
2018-06-19T03:20:46.616Z,5.33
2018-06-19T03:21:19.730Z,5.30
2018-06-19T03:21:52.848Z,6.05
2018-06-19T03:22:26.168Z,5.45
2018-06-19T03:22:59.323Z,5.17
2018-06-19T03:23:32.422Z,5.67
2018-06-19T03:24:05.603Z,6.42
2018-06-19T03:24:38.720Z,12.98
2018-06-19T03:25:12.156Z,5.50
2018-06-19T03:25:45.337Z,6.60
2018-06-19T03:26:18.515Z,5.87
2018-06-19T03:26:51.591Z,6.85
2018-06-19T03:27:24.848Z,6.40
2018-06-19T03:27:57.924Z,5.65
2018-06-19T03:28:31.428Z,5.85
2018-06-19T03:29:04.591Z,7.08
2018-06-19T03:29:37.783Z,5.60
2018-06-19T03:30:10.973Z,6.00
2018-06-19T03:30:44.020Z,7.08
2018-06-19T03:31:17.304Z,5.25
2018-06-19T03:31:50.787Z,5.75
2018-06-19T03:32:23.968Z,7.15
2018-06-19T03:32:57.489Z,6.42
2018-06-19T03:33:30.604Z,5.30
2018-06-19T03:34:03.725Z,5.37
2018-06-19T03:34:37.107Z,6.08
2018-06-19T03:35:10.196Z,7.50
2018-06-19T03:35:43.379Z,5.55
2018-06-19T03:36:16.532Z,6.33
2018-06-19T03:36:49.631Z,7.05
2018-06-19T03:37:22.755Z,5.58
2018-06-19T03:37:56.032Z,5.92
2018-06-19T03:38:29.367Z,6.75
2018-06-19T03:39:02.447Z,6.42
2018-06-19T03:39:35.890Z,5.80
2018-06-19T03:40:09.087Z,6.25
2018-06-19T03:40:42.273Z,7.37
2018-06-19T03:41:15.441Z,7.35
2018-06-19T03:41:48.645Z,5.30
2018-06-19T03:42:21.926Z,6.33
2018-06-19T03:42:55.287Z,7.37
2018-06-19T03:43:28.479Z,6.72
2018-06-19T03:44:01.964Z,6.25
2018-06-19T03:44:35.199Z,6.40
2018-06-19T03:45:08.661Z,6.08
2018-06-19T03:45:42.427Z,6.30
2018-06-19T03:46:15.578Z,5.10
2018-06-19T03:46:48.755Z,5.65
2018-06-19T03:47:21.856Z,5.25
2018-06-19T03:47:55.061Z,5.83
2018-06-19T03:48:28.313Z,6.70
2018-06-19T03:49:01.671Z,5.12
2018-06-19T03:49:35.011Z,7.10
2018-06-19T03:50:08.117Z,5.80
2018-06-19T03:50:41.370Z,7.70
2018-06-19T03:51:14.421Z,5.20
2018-06-19T03:51:47.498Z,4.90
2018-06-19T03:52:20.849Z,5.92
2018-06-19T03:52:54.327Z,12.82
2018-06-19T03:53:27.507Z,5.75
2018-06-19T03:54:01.020Z,5.22
2018-06-19T03:54:35.399Z,5.08
2018-06-19T03:55:09.092Z,5.03
2018-06-19T03:55:42.382Z,5.00
2018-06-19T03:56:15.566Z,6.37
2018-06-19T03:56:48.745Z,5.58
2018-06-19T03:57:21.908Z,6.42
2018-06-19T03:57:55.094Z,5.15
2018-06-19T03:58:28.392Z,4.75
2018-06-19T03:59:01.500Z,6.28
2018-06-19T03:59:34.594Z,5.37
2018-06-19T04:00:07.926Z,5.33
2018-06-19T04:00:40.990Z,6.47
2018-06-19T04:01:14.125Z,5.12
2018-06-19T04:01:47.342Z,5.35
2018-06-19T04:02:20.567Z,5.17
2018-06-19T04:02:53.680Z,5.42
2018-06-19T04:03:26.859Z,5.75
2018-06-19T04:04:00.106Z,5.40
2018-06-19T04:04:33.206Z,4.85
2018-06-19T04:05:06.414Z,4.65
2018-06-19T04:05:39.626Z,5.22
2018-06-19T04:06:12.893Z,7.08
2018-06-19T04:06:45.998Z,6.15
2018-06-19T04:07:19.127Z,6.65
2018-06-19T04:07:52.287Z,5.33
2018-06-19T04:08:26.093Z,6.67
2018-06-19T04:09:00.328Z,5.70
2018-06-19T04:09:33.817Z,6.50
2018-06-19T04:10:07.191Z,5.40
2018-06-19T04:10:40.271Z,5.55
2018-06-19T04:11:13.527Z,6.42
2018-06-19T04:11:46.596Z,5.72
2018-06-19T04:12:19.879Z,6.05
2018-06-19T04:12:53.071Z,6.12
2018-06-19T04:13:26.232Z,6.62
2018-06-19T04:13:59.567Z,6.62
2018-06-19T04:14:32.919Z,6.45
2018-06-19T04:15:06.027Z,4.95
2018-06-19T04:15:39.869Z,5.60
2018-06-19T04:16:13.065Z,6.22
2018-06-19T04:16:46.240Z,5.30
2018-06-19T04:17:23.407Z,6.72
2018-06-19T04:17:56.564Z,6.20
2018-06-19T04:18:29.762Z,6.10
2018-06-19T04:19:02.930Z,5.65
2018-06-19T04:19:36.141Z,5.95
2018-06-19T04:20:09.252Z,7.78
2018-06-19T04:20:42.468Z,6.33
2018-06-19T04:21:15.643Z,6.08
2018-06-19T04:21:48.934Z,5.97
2018-06-19T04:22:22.019Z,5.25
2018-06-19T04:22:55.172Z,6.35
2018-06-19T04:23:28.387Z,6.17
2018-06-19T04:24:01.480Z,6.12
2018-06-19T04:24:34.578Z,7.05
2018-06-19T04:25:08.298Z,6.30
2018-06-19T04:25:41.369Z,6.00
2018-06-19T04:26:14.563Z,6.58
2018-06-19T04:26:47.738Z,6.00
2018-06-19T04:27:20.815Z,6.97
2018-06-19T04:27:54.948Z,8.10
2018-06-19T04:28:28.588Z,6.25
2018-06-19T04:29:02.014Z,6.85
2018-06-19T04:29:35.605Z,5.87
2018-06-19T04:30:09.064Z,5.80
2018-06-19T04:30:42.477Z,5.37
2018-06-19T04:31:15.909Z,5.95
2018-06-19T04:31:49.425Z,6.28
2018-06-19T04:32:22.591Z,6.30
2018-06-19T04:32:55.992Z,6.80
2018-06-19T04:33:29.419Z,5.90
2018-06-19T04:34:02.884Z,6.42
2018-06-19T04:34:36.253Z,6.62
2018-06-19T04:35:10.016Z,6.70
2018-06-19T04:35:44.021Z,7.40
2018-06-19T04:36:17.488Z,6.10
2018-06-19T04:36:50.928Z,6.80
2018-06-19T04:37:24.720Z,6.45
2018-06-19T04:37:58.688Z,6.42
2018-06-19T04:38:32.296Z,7.30
2018-06-19T04:39:08.836Z,6.72
2018-06-19T04:39:42.939Z,6.95
2018-06-19T04:40:16.541Z,8.83
2018-06-19T04:40:49.972Z,9.25
2018-06-19T04:41:23.392Z,7.47
2018-06-19T04:41:57.544Z,7.28
2018-06-19T04:42:30.972Z,7.53
2018-06-19T04:43:05.064Z,9.35
2018-06-19T04:43:38.464Z,11.88
2018-06-19T04:44:12.477Z,7.37
2018-06-19T04:44:45.998Z,9.08
2018-06-19T04:45:19.455Z,7.20
2018-06-19T04:45:53.172Z,7.03
2018-06-19T04:46:27.641Z,7.00
2018-06-19T04:47:01.641Z,7.55
2018-06-19T04:47:35.060Z,9.60
2018-06-19T04:48:08.447Z,6.65
2018-06-19T04:48:41.869Z,11.88
2018-06-19T04:49:15.240Z,7.85
2018-06-19T04:49:48.660Z,6.95
2018-06-19T04:50:23.349Z,7.03
2018-06-19T04:50:57.043Z,7.22
2018-06-19T04:51:30.702Z,9.08
2018-06-19T04:52:04.425Z,8.33
2018-06-19T04:52:38.794Z,9.25
2018-06-19T04:53:12.243Z,9.13
2018-06-19T04:53:45.632Z,7.22
2018-06-19T04:54:18.745Z,8.10
2018-06-19T04:54:52.210Z,8.63
2018-06-19T04:55:26.172Z,8.93
2018-06-19T04:55:59.876Z,8.65
2018-06-19T04:56:33.286Z,8.00
2018-06-19T04:57:06.681Z,9.43
2018-06-19T04:57:40.607Z,9.15
2018-06-19T04:58:14.790Z,10.75
2018-06-19T04:58:48.228Z,10.85
2018-06-19T04:59:21.729Z,8.58
2018-06-19T04:59:55.105Z,8.15
2018-06-19T05:00:28.248Z,7.78
2018-06-19T05:01:01.361Z,14.38
2018-06-19T05:01:34.501Z,7.35
2018-06-19T05:02:07.792Z,8.30
2018-06-19T05:02:40.885Z,8.50
2018-06-19T05:03:14.142Z,11.22
2018-06-19T05:03:47.305Z,8.50
2018-06-19T05:04:20.340Z,7.10
2018-06-19T05:04:53.447Z,7.62
2018-06-19T05:05:26.669Z,9.23
2018-06-19T05:06:00.153Z,10.05
2018-06-19T05:06:33.697Z,10.08
2018-06-19T05:07:07.054Z,8.60
2018-06-19T05:07:40.319Z,6.97
2018-06-19T05:08:13.398Z,8.15
2018-06-19T05:08:46.591Z,7.25
2018-06-19T05:09:19.896Z,9.18
2018-06-19T05:09:53.607Z,7.90
2018-06-19T05:10:26.864Z,7.00
2018-06-19T05:11:00.047Z,9.60
2018-06-19T05:11:33.718Z,7.08
2018-06-19T05:12:07.591Z,7.53
2018-06-19T05:12:40.703Z,7.60
2018-06-19T05:13:13.868Z,8.00
2018-06-19T05:13:47.012Z,7.78
2018-06-19T05:14:20.298Z,8.55
2018-06-19T05:14:53.382Z,9.50
2018-06-19T05:15:26.852Z,7.50
2018-06-19T05:16:00.456Z,8.48
2018-06-19T05:16:33.549Z,9.78
2018-06-19T05:17:06.393Z,9.08
2018-06-19T05:17:40.012Z,9.60
2018-06-19T05:18:13.140Z,7.10
2018-06-19T05:18:46.755Z,8.30
2018-06-19T05:19:20.399Z,7.75
2018-06-19T05:19:55.689Z,7.67
2018-06-19T05:20:29.390Z,11.08
2018-06-19T05:21:02.687Z,8.43
2018-06-19T05:21:35.832Z,7.50
2018-06-19T05:22:09.408Z,6.83
2018-06-19T05:22:42.776Z,7.92
2018-06-19T05:23:15.904Z,7.72
2018-06-19T05:23:49.125Z,9.68
2018-06-19T05:24:22.319Z,7.95
2018-06-19T05:24:55.779Z,7.55
2018-06-19T05:25:28.882Z,10.95
2018-06-19T05:26:02.016Z,9.25
2018-06-19T05:26:35.322Z,9.30
2018-06-19T05:27:08.448Z,9.90
2018-06-19T05:27:41.691Z,7.75
2018-06-19T05:28:15.174Z,7.80
2018-06-19T05:28:48.463Z,12.47
2018-06-19T05:29:21.826Z,10.60
2018-06-19T05:29:55.424Z,6.60
2018-06-19T05:30:28.661Z,8.43
2018-06-19T05:31:02.007Z,7.53
2018-06-19T05:31:35.176Z,8.55
2018-06-19T05:32:08.348Z,9.20
2018-06-19T05:32:41.463Z,9.60
2018-06-19T05:33:14.814Z,8.13
2018-06-19T05:33:49.489Z,10.80
2018-06-19T05:34:23.320Z,7.78
2018-06-19T05:34:56.494Z,12.18
2018-06-19T05:35:30.988Z,9.18
2018-06-19T05:36:04.129Z,8.13
2018-06-19T05:36:37.458Z,8.50
2018-06-19T05:37:10.631Z,11.05
2018-06-19T05:37:44.108Z,11.90
2018-06-19T05:38:17.286Z,11.28
2018-06-19T05:38:50.783Z,10.82
2018-06-19T05:39:23.918Z,8.05
2018-06-19T05:39:57.071Z,9.20
2018-06-19T05:40:31.164Z,9.40
2018-06-19T05:41:04.354Z,9.23
2018-06-19T05:41:37.607Z,10.98
2018-06-19T05:42:10.905Z,11.15
2018-06-19T05:42:44.245Z,11.53
2018-06-19T05:43:17.438Z,9.88
2018-06-19T05:43:50.556Z,8.90
2018-06-19T05:44:23.896Z,11.03
2018-06-19T05:44:57.041Z,10.82
2018-06-19T05:45:30.435Z,11.88
2018-06-19T05:46:04.107Z,11.83
2018-06-19T05:46:37.906Z,10.35
2018-06-19T05:47:11.018Z,9.95
2018-06-19T05:47:44.211Z,12.07
2018-06-19T05:48:17.440Z,11.63
2018-06-19T05:48:50.785Z,12.23
2018-06-19T05:49:24.182Z,10.65
2018-06-19T05:49:57.395Z,10.65
2018-06-19T05:50:30.640Z,11.12
2018-06-19T05:51:03.763Z,13.18
2018-06-19T05:51:37.303Z,13.18
2018-06-19T05:52:10.505Z,11.40
2018-06-19T05:52:43.633Z,10.98
2018-06-19T05:53:16.806Z,12.95
2018-06-19T05:53:50.010Z,13.90
2018-06-19T05:54:23.486Z,11.05
2018-06-19T05:54:56.678Z,13.70
2018-06-19T05:55:30.306Z,11.08
2018-06-19T05:56:03.645Z,12.28
2018-06-19T05:56:37.225Z,13.25
2018-06-19T05:57:10.404Z,11.30
2018-06-19T05:57:44.084Z,10.85
2018-06-19T05:58:17.314Z,12.82
2018-06-19T05:58:50.479Z,10.78
2018-06-19T05:59:23.638Z,7.05
2018-06-19T05:59:56.811Z,11.53
2018-06-19T06:00:30.084Z,12.85
2018-06-19T06:01:03.305Z,19.55
2018-06-19T06:01:36.416Z,11.78
2018-06-19T06:02:09.665Z,15.10
2018-06-19T06:02:43.045Z,10.18
2018-06-19T06:03:16.178Z,13.35
2018-06-19T06:03:49.366Z,12.28
2018-06-19T06:04:22.578Z,9.00
2018-06-19T06:04:56.535Z,9.68
2018-06-19T06:05:29.666Z,11.33
2018-06-19T06:06:03.039Z,12.07
2018-06-19T06:06:36.516Z,19.90
2018-06-19T06:07:09.696Z,13.18
2018-06-19T06:07:42.827Z,11.10
2018-06-19T06:08:16.128Z,10.30
2018-06-19T06:08:49.431Z,10.13
2018-06-19T06:09:22.712Z,10.00
2018-06-19T06:09:55.963Z,11.08
2018-06-19T06:10:29.173Z,16.07
2018-06-19T06:11:02.309Z,13.22
2018-06-19T06:11:35.967Z,13.32
2018-06-19T06:12:09.062Z,15.45
2018-06-19T06:12:43.447Z,12.55
2018-06-19T06:13:16.750Z,12.35
2018-06-19T06:13:49.949Z,13.53
2018-06-19T06:14:23.128Z,14.25
2018-06-19T06:14:56.417Z,11.80
2018-06-19T06:15:29.521Z,11.83
2018-06-19T06:16:02.978Z,17.98
2018-06-19T06:16:36.155Z,13.55
2018-06-19T06:17:10.739Z,13.50
2018-06-19T06:17:44.031Z,11.65
2018-06-19T06:18:17.258Z,14.35
2018-06-19T06:18:50.687Z,14.60
2018-06-19T06:19:23.972Z,12.15
2018-06-19T06:19:57.433Z,14.45
2018-06-19T06:20:30.760Z,13.65
2018-06-19T06:21:04.061Z,15.15
2018-06-19T06:21:37.634Z,7.55
2018-06-19T06:22:11.407Z,9.35
2018-06-19T06:22:44.955Z,11.48
2018-06-19T06:23:19.425Z,10.80
2018-06-19T06:23:53.461Z,18.17
2018-06-19T06:24:26.816Z,13.55
2018-06-19T06:25:00.181Z,11.28
2018-06-19T06:25:35.801Z,11.95
2018-06-19T06:26:10.269Z,8.98
2018-06-19T06:26:43.535Z,11.55
2018-06-19T06:27:17.754Z,12.45
2018-06-19T06:27:51.132Z,12.30
2018-06-19T06:28:24.462Z,15.28
2018-06-19T06:28:58.794Z,16.85
2018-06-19T06:29:32.589Z,12.15
2018-06-19T06:30:05.942Z,18.15
2018-06-19T06:30:39.182Z,12.05
2018-06-19T06:31:12.464Z,12.75
2018-06-19T06:31:46.595Z,15.93
2018-06-19T06:32:19.994Z,13.85
2018-06-19T06:32:53.801Z,11.93
2018-06-19T06:33:27.904Z,11.97
2018-06-19T06:34:02.002Z,15.75
2018-06-19T06:34:35.827Z,17.82
2018-06-19T06:35:09.280Z,17.92
2018-06-19T06:35:42.666Z,14.90
2018-06-19T06:36:16.187Z,13.53
2018-06-19T06:36:50.027Z,14.15
2018-06-19T06:37:23.534Z,14.10
2018-06-19T06:37:56.837Z,12.25
2018-06-19T06:38:31.248Z,12.28
2018-06-19T06:39:06.048Z,17.85
2018-06-19T06:39:39.336Z,12.55
2018-06-19T06:40:12.705Z,11.45
2018-06-19T06:40:46.902Z,12.50
2018-06-19T06:41:20.355Z,15.53
2018-06-19T06:41:53.662Z,12.07
2018-06-19T06:42:28.887Z,13.88
2018-06-19T06:43:02.586Z,13.20
2018-06-19T06:43:35.961Z,19.90
2018-06-19T06:44:09.338Z,21.90
2018-06-19T06:44:42.738Z,14.58
2018-06-19T06:45:16.330Z,17.37
2018-06-19T06:45:50.284Z,16.32
2018-06-19T06:46:24.326Z,17.25
2018-06-19T06:46:58.309Z,17.65
2018-06-19T06:47:32.401Z,11.78
2018-06-19T06:48:05.798Z,13.08
2018-06-19T06:48:39.373Z,13.13
2018-06-19T06:49:12.864Z,12.60
2018-06-19T06:49:46.875Z,13.13
2018-06-19T06:50:20.185Z,12.20
2018-06-19T06:50:53.631Z,14.20
2018-06-19T06:51:27.014Z,13.08
2018-06-19T06:52:00.907Z,12.63
2018-06-19T06:52:34.700Z,15.15
2018-06-19T06:53:09.101Z,15.15
2018-06-19T06:53:43.572Z,10.80
2018-06-19T06:54:16.911Z,11.38
2018-06-19T06:54:50.720Z,13.25
2018-06-19T06:55:24.285Z,12.07
2018-06-19T06:55:57.677Z,14.03
2018-06-19T06:56:30.961Z,17.70
2018-06-19T06:57:04.594Z,12.82
2018-06-19T06:57:37.985Z,13.35
2018-06-19T06:58:11.099Z,12.63
2018-06-19T06:58:44.454Z,10.38
2018-06-19T06:59:17.661Z,11.40
2018-06-19T06:59:50.810Z,10.50
2018-06-19T07:00:24.113Z,10.78
2018-06-19T07:00:57.228Z,14.05
2018-06-19T07:01:30.623Z,13.05
2018-06-19T07:02:03.953Z,14.90
2018-06-19T07:03:16.977Z,13.30
2018-06-19T07:03:50.347Z,11.93
2018-06-19T07:04:23.580Z,11.15
2018-06-19T07:04:56.949Z,18.73
2018-06-19T07:05:30.194Z,16.70
2018-06-19T07:06:03.476Z,17.15
2018-06-19T07:06:37.372Z,11.93
2018-06-19T07:07:10.531Z,13.32
2018-06-19T07:07:44.012Z,21.70
2018-06-19T07:08:17.734Z,14.05
2018-06-19T07:08:50.867Z,16.90
2018-06-19T07:09:24.020Z,20.45
2018-06-19T07:09:57.909Z,14.35
2018-06-19T07:10:31.288Z,13.88
2018-06-19T07:11:04.615Z,14.13
2018-06-19T07:11:38.221Z,10.25
2018-06-19T07:12:11.803Z,12.07
2018-06-19T07:12:45.187Z,11.93
2018-06-19T07:13:18.344Z,10.55
2018-06-19T07:13:51.591Z,15.88
2018-06-19T07:14:24.827Z,12.60
2018-06-19T07:14:57.942Z,12.33
2018-06-19T07:15:31.245Z,12.28
2018-06-19T07:16:04.600Z,11.33
2018-06-19T07:16:37.745Z,14.95
2018-06-19T07:17:11.008Z,11.97
2018-06-19T07:17:44.196Z,12.68
2018-06-19T07:18:17.496Z,14.43
2018-06-19T07:18:51.008Z,15.23
2018-06-19T07:19:24.360Z,14.90
2018-06-19T07:19:57.477Z,10.45
2018-06-19T07:20:30.661Z,15.45
2018-06-19T07:21:03.819Z,14.50
2018-06-19T07:21:37.056Z,9.75